Weather History for Swainsboro, GA

Change the Weather History Date:

Wednesday, November 21, 2012

  Actual Average Record
Temperature  
Mean Temperature 52 °F -  
Max Temperature 68 °F 66 °F 55 °F (2013)
Min Temperature 37 °F 43 °F 51 °F (2013)
Degree Days  
Heating Degree Days 12    
Growing Degree Days 2 (Base 50)    
Moisture  
Dew Point 42 °F    
Average Humidity 78    
Maximum Humidity 100    
Minimum Humidity 35    
Precipitation  
Precipitation 0.00 in - - ()
Sea Level Pressure  
Sea Level Pressure 30.12 in    
Wind  
Wind Speed 1 mph ()    
Max Wind Speed 8 mph    
Max Gust Speed -    
Visibility 10.0 miles    
Events      
Averages and records for this station are not official NWS values.
T = Trace of Precipitation, MM = Missing Value Source: Averaged Metar Reports

Daily Weather History Graph

Daily Weather History Graph

Search for Another Location

Airport:

Trip Planner

Search our weather history database for the weather conditions in past years. The results will help you decide how hot, cold, wet, or windy it might be!

Date:

Astronomy

Nov. 21, 2012 Rise Set
Actual Time 7:05 AM EST 5:25 PM EST
Civil Twilight 6:38 AM EST 5:51 PM EST
Nautical Twilight 6:08 AM EST 6:21 PM EST
Astronomical Twilight 5:39 AM EST 6:51 PM EST
Moon 1:23 PM EST (11/21) 12:43 AM EST (11/21)
Length of Visible Light 11h 13m
Length of Day
10h 20m
First Quarter, 61% of the Moon is Illuminated
Nov 21
First Quarter
Nov 28
Full
Dec 6
Last Quarter
Dec 13
New
Dec 20
First Quarter

Hourly Weather History & Observations

Time (EST) Temp. Windchill Dew Point Humidity Pressure Visibility Wind Dir Wind Speed Gust Speed Precip Events Conditions
12:15 AM 42.8 °F - 42.8 °F 100% 30.10 in 10.0 mi Calm Calm - N/A   Clear
12:35 AM 42.8 °F - 42.8 °F 100% 30.09 in 10.0 mi Calm Calm - N/A   Clear
12:55 AM 42.8 °F - 42.8 °F 100% 30.09 in 10.0 mi Calm Calm - N/A   Clear
1:15 AM 42.8 °F - 42.8 °F 100% 30.09 in 10.0 mi Calm Calm - N/A   Clear
1:35 AM 41.0 °F - 41.0 °F 100% 30.09 in 10.0 mi Calm Calm - N/A   Clear
1:55 AM 42.8 °F - 42.8 °F 100% 30.08 in 10.0 mi Calm Calm - N/A   Clear
2:15 AM 42.8 °F - 42.8 °F 100% 30.08 in 10.0 mi Calm Calm - N/A   Clear
2:35 AM 42.8 °F - 42.8 °F 100% 30.08 in 10.0 mi Calm Calm - N/A   Clear
2:55 AM 42.8 °F - 42.8 °F 100% 30.08 in 10.0 mi Calm Calm - N/A   Clear
3:15 AM 42.8 °F - 42.8 °F 100% 30.07 in 10.0 mi Calm Calm - N/A   Clear
3:35 AM 41.0 °F - 41.0 °F 100% 30.07 in 10.0 mi Calm Calm - N/A   Clear
3:55 AM 39.2 °F - 39.2 °F 100% 30.08 in 10.0 mi Calm Calm - N/A   Clear
4:15 AM 41.0 °F - 41.0 °F 100% 30.08 in 10.0 mi Calm Calm - N/A   Clear
4:35 AM 39.2 °F - 39.2 °F 100% 30.08 in 10.0 mi Calm Calm - N/A   Clear
4:55 AM 39.2 °F - 39.2 °F 100% 30.09 in 10.0 mi Calm Calm - N/A   Clear
5:15 AM 39.2 °F - 39.2 °F 100% 30.09 in 10.0 mi Calm Calm - N/A   Clear
5:35 AM 39.2 °F - 39.2 °F 100% 30.09 in 10.0 mi Calm Calm - N/A   Clear
5:55 AM 41.0 °F - 41.0 °F 100% 30.09 in 10.0 mi Calm Calm - N/A   Clear
6:15 AM 37.4 °F - 37.4 °F 100% 30.10 in 10.0 mi Calm Calm - N/A   Clear
6:35 AM 37.4 °F - 37.4 °F 100% 30.10 in 10.0 mi Calm Calm - N/A   Clear
6:55 AM 37.4 °F - 37.4 °F 100% 30.11 in 10.0 mi Calm Calm - N/A   Clear
7:15 AM 37.4 °F - 37.4 °F 100% 30.12 in 10.0 mi Calm Calm - N/A   Clear
7:35 AM 39.2 °F - 39.2 °F 100% 30.12 in 10.0 mi Calm Calm - N/A   Clear
7:55 AM 41.0 °F - 41.0 °F 100% 30.12 in 10.0 mi Calm Calm - N/A   Clear
8:15 AM 42.8 °F - 42.8 °F 100% 30.14 in 10.0 mi Calm Calm - N/A   Clear
8:35 AM 46.4 °F - 46.4 °F 100% 30.13 in 10.0 mi Calm Calm - N/A   Clear
8:55 AM 51.8 °F - 50.0 °F 94% 30.14 in 10.0 mi Calm Calm - N/A   Clear
9:15 AM 53.6 °F - 50.0 °F 88% 30.15 in 10.0 mi North 3.5 mph - N/A   Clear
9:35 AM 55.4 °F - 50.0 °F 82% 30.16 in 10.0 mi NNE 4.6 mph - N/A   Clear
9:55 AM 55.4 °F - 50.0 °F 82% 30.16 in 10.0 mi North 3.5 mph - N/A   Clear
10:15 AM 59.0 °F - 48.2 °F 67% 30.16 in 10.0 mi Calm Calm - N/A   Clear
10:35 AM 59.0 °F - 48.2 °F 67% 30.16 in 10.0 mi NNE 6.9 mph - N/A   Clear
10:55 AM 60.8 °F - 46.4 °F 59% 30.16 in 10.0 mi NNE 3.5 mph - N/A   Clear
11:15 AM 62.6 °F - 46.4 °F 55% 30.15 in 10.0 mi NE 4.6 mph - N/A   Clear
11:35 AM 62.6 °F - 46.4 °F 55% 30.15 in 10.0 mi ENE 4.6 mph - N/A   Clear
11:55 AM 62.6 °F - 46.4 °F 55% 30.14 in 10.0 mi North 5.8 mph - N/A   Clear
12:15 PM 64.4 °F - 46.4 °F 52% 30.14 in 10.0 mi North 5.8 mph - N/A   Clear
12:35 PM 64.4 °F - 46.4 °F 52% 30.13 in 10.0 mi NNE 5.8 mph - N/A   Clear
12:55 PM 66.2 °F - 46.4 °F 49% 30.12 in 10.0 mi NNW 3.5 mph - N/A   Clear
1:15 PM 66.2 °F - 41.0 °F 40% 30.11 in 10.0 mi NNW 6.9 mph - N/A   Clear
1:35 PM 68.0 °F - 39.2 °F 35% 30.11 in 10.0 mi ENE 5.8 mph - N/A   Clear
1:55 PM 68.0 °F - 41.0 °F 37% 30.10 in 10.0 mi NE 8.1 mph - N/A   Clear
2:15 PM 68.0 °F - 39.2 °F 35% 30.09 in 10.0 mi NNE 5.8 mph - N/A   Clear
2:35 PM 68.0 °F - 41.0 °F 37% 30.09 in 10.0 mi North 4.6 mph - N/A   Clear
2:55 PM 68.0 °F - 41.0 °F 37% 30.09 in 10.0 mi North 4.6 mph - N/A   Clear
3:15 PM 68.0 °F - 39.2 °F 35% 30.09 in 10.0 mi NNE 5.8 mph - N/A   Clear
3:35 PM 68.0 °F - 39.2 °F 35% 30.09 in 10.0 mi North 5.8 mph - N/A   Clear
3:55 PM 68.0 °F - 39.2 °F 35% 30.09 in 10.0 mi NNE 6.9 mph - N/A   Clear
4:15 PM 68.0 °F - 39.2 °F 35% 30.10 in 10.0 mi North 4.6 mph - N/A   Clear
4:35 PM 66.2 °F - 37.4 °F 35% 30.10 in 10.0 mi North 3.5 mph - N/A   Clear
4:55 PM 64.4 °F - 37.4 °F 37% 30.11 in 10.0 mi Calm Calm - N/A   Clear
5:15 PM 62.6 °F - 39.2 °F 42% 30.11 in 10.0 mi Calm Calm - N/A   Clear
5:35 PM 59.0 °F - 41.0 °F 51% 30.11 in 10.0 mi Calm Calm - N/A   Clear
5:55 PM 53.6 °F - 42.8 °F 67% 30.11 in 10.0 mi Calm Calm - N/A   Clear
6:15 PM 51.8 °F - 42.8 °F 71% 30.11 in 10.0 mi Calm Calm - N/A   Clear
6:35 PM 50.0 °F - 42.8 °F 76% 30.12 in 10.0 mi Calm Calm - N/A   Clear
6:55 PM 46.4 °F - 42.8 °F 87% 30.13 in 10.0 mi Calm Calm - N/A   Clear
7:15 PM 48.2 °F - 42.8 °F 82% 30.13 in 10.0 mi Calm Calm - N/A   Clear
7:35 PM 51.8 °F - 41.0 °F 67% 30.13 in 10.0 mi Calm Calm - N/A   Clear
7:55 PM 48.2 °F - 41.0 °F 76% 30.13 in 10.0 mi Calm Calm - N/A   Clear
8:15 PM 46.4 °F - 42.8 °F 87% 30.13 in 10.0 mi Calm Calm - N/A   Clear
8:35 PM 44.6 °F - 41.0 °F 87% 30.14 in 10.0 mi Calm Calm - N/A   Clear
8:55 PM 44.6 °F - 41.0 °F 87% 30.14 in 10.0 mi Calm Calm - N/A   Clear
9:15 PM 44.6 °F - 41.0 °F 87% 30.14 in 10.0 mi Calm Calm - N/A   Clear
9:35 PM 42.8 °F - 41.0 °F 93% 30.15 in 10.0 mi Calm Calm - N/A   Clear
9:55 PM 42.8 °F 41.1 °F 41.0 °F 93% 30.15 in 10.0 mi NNE 3.5 mph - N/A   Clear
10:15 PM 44.6 °F - 41.0 °F 87% 30.15 in 10.0 mi Calm Calm - N/A   Clear
10:35 PM 42.8 °F - 41.0 °F 93% 30.16 in 10.0 mi Calm Calm - N/A   Clear
10:55 PM 41.0 °F - 41.0 °F 100% 30.16 in 10.0 mi Calm Calm - N/A   Clear
11:15 PM 41.0 °F - 41.0 °F 100% 30.16 in 10.0 mi Calm Calm - N/A   Clear
11:35 PM 41.0 °F - 41.0 °F 100% 30.16 in 10.0 mi Calm Calm - N/A   Clear
11:55 PM 41.0 °F 39.0 °F 41.0 °F 100% 30.16 in 10.0 mi NE 3.5 mph - N/A   Clear